Salina, Kansas
Current Conditions -  °F | °C
As of 4:53 PM on Monday 20 Oct 2014 (Local Time) from KSLN Reporting Station
Clear Clear  
Wind Chill: 25°   Ceiling: Unl
Heat Index: 25°   Visibility: 10mi
Dew Point:   Wind: 6mph
Humidity: 32%   Direction: 40°NE
Pressure: 30.05"   Gusts: NA
Location:  38.84°N, 97.61°W
Report Text: KSLN 202153Z 04005KT 10SM CLR 25/07 A3005 RMK AO2 SLP168 T02500072
Loading
Personal Weather Stations






























Interactive Weather Map New forecast layout! Learn more

10-Day Weather Forecast

Advertisements
Track Severe Weather on mobile